Greenwood, New York
Current Conditions -  °F | °C
As of 1:56 AM on Friday 19 Dec 2014 (Local Time) from KELZ Reporting Station
Freezing Rain Freezing Rain  
Wind Chill: 14°   Ceiling: 500
Heat Index: 26°   Visibility: 8mi
Dew Point: 23°   Wind: 14mph
Humidity: 88%   Direction: 310°NW
Pressure: 29.99"   Gusts: NA
Location:  42.13°N, 77.65°W
Report Text: KELZ 190656Z AUTO 31012KT 8SM -FZRA OVC005 M03/M05 A2999 RMK AO2 UPB03E32FZRAB32SNE03 SLP181 P0000 I1001 T10331050
Loading
Personal Weather Stations






























Interactive Weather Map New forecast layout! Learn more

10-Day Weather Forecast

Advertisements
Track Severe Weather on mobile